Time;durP1;ratioP1;P1;durP2;ratioP2;P2;SDS_P1;SDS_P2;PMS_P1;PMS_P2;Temp;Humidity;BMP_temperature;BMP_pressure;BME280_temperature;BME280_humidity;BME280_pressure;Samples;Min_cycle;Max_cycle;Signal;HPM_P1;HPM_P2
2022/03/17 00:02:20;;;;;;;24.83;16.58;;;13.20;99.90;;;;;;7334081;19;111049;-82
2022/03/17 00:04:48;;;;;;;27.70;15.73;;;13.20;99.90;;;;;;7337034;19;111845;-82
2022/03/17 00:07:15;;;;;;;26.02;16.98;;;13.30;99.90;;;;;;7338656;19;110840;-82
2022/03/17 00:09:42;;;;;;;22.45;16.63;;;13.30;99.90;;;;;;7333956;19;112071;-82
2022/03/17 00:12:09;;;;;;;24.10;16.15;;;13.30;99.90;;;;;;7334035;19;110496;-82
2022/03/17 00:14:37;;;;;;;23.48;16.17;;;13.40;99.90;;;;;;7335160;19;111615;-82
2022/03/17 00:17:04;;;;;;;24.20;17.30;;;13.40;99.90;;;;;;7334851;19;111753;-82
2022/03/17 00:19:31;;;;;;;27.17;17.20;;;13.40;99.90;;;;;;7334701;19;110483;-82
2022/03/17 00:21:59;;;;;;;22.98;16.10;;;13.40;99.90;;;;;;7336370;19;112819;-82
2022/03/17 00:24:26;;;;;;;25.42;16.90;;;13.40;99.90;;;;;;7336102;19;111830;-82
2022/03/17 00:26:55;;;;;;;21.77;15.77;;;13.50;99.90;;;;;;7334116;19;111097;-83
2022/03/17 00:29:22;;;;;;;23.42;17.13;;;13.50;99.90;;;;;;7340479;19;111345;-83
2022/03/17 00:31:49;;;;;;;25.13;17.23;;;13.50;99.90;;;;;;7334908;19;111399;-83
2022/03/17 00:34:17;;;;;;;23.67;16.48;;;13.50;99.90;;;;;;7334840;19;111472;-83
2022/03/17 00:36:47;;;;;;;29.92;18.27;;;13.50;99.90;;;;;;7335710;19;111800;-83
2022/03/17 00:39:15;;;;;;;26.13;17.40;;;13.40;99.90;;;;;;7335365;19;110512;-84
2022/03/17 00:41:43;;;;;;;32.65;18.77;;;13.20;99.90;;;;;;7333167;19;111511;-83
2022/03/17 00:44:11;;;;;;;25.13;17.05;;;13.20;99.90;;;;;;7334679;19;111708;-83
2022/03/17 00:46:39;;;;;;;28.67;18.08;;;13.30;99.90;;;;;;7333365;19;110509;-83
2022/03/17 00:49:07;;;;;;;24.95;16.67;;;13.30;99.90;;;;;;7334097;19;111465;-83
2022/03/17 00:51:35;;;;;;;31.42;17.27;;;13.40;99.90;;;;;;7338532;19;111949;-83
2022/03/17 00:54:02;;;;;;;25.25;16.73;;;13.50;99.90;;;;;;7334047;19;111858;-83
2022/03/17 00:56:29;;;;;;;25.75;16.42;;;13.50;99.90;;;;;;7332801;19;115653;-83
2022/03/17 00:58:56;;;;;;;26.83;17.27;;;13.50;99.90;;;;;;7334902;19;110593;-83
2022/03/17 01:01:23;;;;;;;26.90;18.55;;;13.50;99.90;;;;;;7335407;19;111414;-83
2022/03/17 01:03:50;;;;;;;29.45;18.80;;;13.50;99.90;;;;;;7334788;19;111764;-83
2022/03/17 01:06:17;;;;;;;31.08;18.70;;;13.50;99.90;;;;;;7334222;19;110409;-83
2022/03/17 01:08:44;;;;;;;28.73;17.65;;;13.50;99.90;;;;;;7333722;19;111607;-83
2022/03/17 01:11:12;;;;;;;25.60;17.70;;;13.50;99.90;;;;;;7337744;19;112242;-82
2022/03/17 01:13:39;;;;;;;31.42;18.45;;;13.50;99.90;;;;;;7335893;19;111828;-83
2022/03/17 01:16:07;;;;;;;30.25;18.83;;;13.50;99.90;;;;;;7331228;19;112128;-83
2022/03/17 01:18:34;;;;;;;27.65;19.10;;;13.60;99.90;;;;;;7333398;19;110470;-83
2022/03/17 01:21:02;;;;;;;32.53;20.23;;;13.60;99.90;;;;;;7333001;19;112487;-83
2022/03/17 01:23:33;;;;;;;29.75;19.90;;;13.60;99.90;;;;;;7333256;19;111014;-83
2022/03/17 01:26:01;;;;;;;33.47;19.25;;;13.60;99.90;;;;;;7334518;19;110487;-83
2022/03/17 01:28:28;;;;;;;29.70;19.95;;;13.60;99.90;;;;;;7330997;19;112384;-83
2022/03/17 01:30:55;;;;;;;35.38;20.33;;;13.60;99.90;;;;;;7331235;19;111780;-83
2022/03/17 01:33:22;;;;;;;30.30;19.65;;;13.60;99.90;;;;;;7338752;19;110445;-82
2022/03/17 01:35:49;;;;;;;34.75;21.00;;;13.60;99.90;;;;;;7333262;19;110754;-83
2022/03/17 01:38:17;;;;;;;34.67;20.42;;;13.60;99.90;;;;;;7332140;19;110322;-83
2022/03/17 01:40:44;;;;;;;31.95;21.10;;;13.60;99.90;;;;;;7333754;19;111713;-83
2022/03/17 01:43:11;;;;;;;39.25;22.50;;;13.60;99.90;;;;;;7334351;19;111356;-83
2022/03/17 01:45:38;;;;;;;39.45;23.05;;;13.70;99.90;;;;;;7331032;19;114015;-83
2022/03/17 01:48:05;;;;;;;34.20;22.65;;;13.70;99.90;;;;;;7330889;19;111473;-83
2022/03/17 01:50:32;;;;;;;37.75;24.35;;;13.70;99.90;;;;;;7332516;19;112752;-83
2022/03/17 01:52:59;;;;;;;43.05;24.75;;;13.70;99.90;;;;;;7332673;19;111465;-83
2022/03/17 01:55:27;;;;;;;37.55;25.42;;;13.70;99.90;;;;;;7337349;19;114788;-83
2022/03/17 01:57:54;;;;;;;46.58;25.63;;;13.80;99.90;;;;;;7331466;19;111060;-84
2022/03/17 02:00:22;;;;;;;45.40;25.77;;;13.90;99.90;;;;;;7336719;19;114835;-83
2022/03/17 02:02:51;;;;;;;38.50;24.50;;;13.90;99.90;;;;;;7338812;19;112072;-84
2022/03/17 02:05:19;;;;;;;39.30;24.90;;;13.90;99.90;;;;;;7340510;19;112599;-84
2022/03/17 02:07:51;;;;;;;49.20;25.77;;;13.80;99.90;;;;;;7333735;19;111293;-83
2022/03/17 02:10:19;;;;;;;41.55;26.27;;;13.80;99.90;;;;;;7338669;19;111890;-83
2022/03/17 02:15:34;;;;;;;32.22;21.65;;;13.70;99.90;;;;;;7337447;19;113019;-83
2022/03/17 02:18:02;;;;;;;32.97;21.27;;;13.80;99.90;;;;;;7342989;19;114426;-83
2022/03/17 02:20:29;;;;;;;28.80;20.40;;;13.80;99.90;;;;;;7339875;19;111487;-83
2022/03/17 02:25:33;;;;;;;24.15;18.77;;;13.90;99.90;;;;;;7337157;19;112278;-83
2022/03/17 02:25:54;;;;;;;21.73;17.42;;;13.80;99.90;;;;;;7338778;19;111270;-83
2022/03/17 02:28:22;;;;;;;20.48;15.90;;;13.70;99.90;;;;;;7338611;19;112902;-83
2022/03/17 02:30:50;;;;;;;21.23;15.98;;;13.50;99.90;;;;;;7337383;19;111195;-83
2022/03/17 02:33:17;;;;;;;19.50;16.25;;;13.40;99.90;;;;;;7339782;19;110160;-83
2022/03/17 02:35:47;;;;;;;23.20;19.05;;;13.30;99.90;;;;;;7338681;19;111415;-83
2022/03/17 02:38:14;;;;;;;29.40;22.42;;;13.30;99.90;;;;;;7336575;19;111691;-83
2022/03/17 02:40:46;;;;;;;34.60;26.10;;;13.10;99.90;;;;;;7343789;19;110112;-83
2022/03/17 02:43:18;;;;;;;37.30;28.23;;;13.00;99.90;;;;;;7335749;19;111743;-83
2022/03/17 02:45:46;;;;;;;40.53;28.92;;;13.00;99.90;;;;;;7335692;19;114041;-83
2022/03/17 02:48:15;;;;;;;36.50;25.50;;;12.80;99.90;;;;;;7337497;19;111747;-83
2022/03/17 02:50:42;;;;;;;34.50;22.92;;;12.70;99.90;;;;;;7336642;19;114891;-83
2022/03/17 02:53:10;;;;;;;34.92;21.85;;;12.70;99.90;;;;;;7338218;19;110695;-84
2022/03/17 02:55:40;;;;;;;32.60;20.27;;;12.60;99.90;;;;;;7336523;19;111673;-83
2022/03/17 02:58:08;;;;;;;32.38;19.42;;;12.50;99.90;;;;;;7338128;19;111768;-83
2022/03/17 03:00:36;;;;;;;38.38;19.08;;;12.40;99.90;;;;;;7338444;19;111200;-83
2022/03/17 03:03:06;;;;;;;31.90;19.80;;;12.30;99.90;;;;;;7341705;19;111026;-83
2022/03/17 03:05:34;;;;;;;35.88;20.35;;;12.30;99.90;;;;;;7339388;19;111281;-83
2022/03/17 03:08:02;;;;;;;40.33;21.00;;;12.20;99.90;;;;;;7336916;19;111433;-83
2022/03/17 03:10:30;;;;;;;33.20;20.13;;;12.10;99.90;;;;;;7338668;19;111786;-83
2022/03/17 03:12:58;;;;;;;30.15;20.80;;;12.10;99.90;;;;;;7335753;19;111103;-83
2022/03/17 03:15:26;;;;;;;35.40;20.13;;;12.00;99.90;;;;;;7336771;19;111663;-83
2022/03/17 03:17:54;;;;;;;37.58;19.58;;;11.90;99.90;;;;;;7335733;19;111780;-82
2022/03/17 03:20:23;;;;;;;39.15;20.30;;;11.90;99.90;;;;;;7336064;19;110882;-83
2022/03/17 03:22:50;;;;;;;38.97;21.67;;;11.90;99.90;;;;;;7343961;19;111564;-83
2022/03/17 03:25:17;;;;;;;43.47;21.65;;;11.80;99.90;;;;;;7336469;19;110933;-83
2022/03/17 03:27:44;;;;;;;33.92;22.05;;;11.70;99.90;;;;;;7335652;19;111481;-83
2022/03/17 03:30:13;;;;;;;41.35;21.67;;;11.70;99.90;;;;;;7333574;19;111750;-83
2022/03/17 03:32:50;;;;;;;35.40;21.13;;;11.70;99.90;;;;;;7336897;19;111214;-83
2022/03/17 03:38:03;;;;;;;38.30;23.00;;;11.50;99.90;;;;;;7344032;19;109073;-83
2022/03/17 03:40:30;;;;;;;41.30;22.88;;;11.50;99.90;;;;;;7337250;19;111572;-83
2022/03/17 03:42:57;;;;;;;33.20;22.27;;;11.50;99.90;;;;;;7336767;19;111297;-83
2022/03/17 03:45:25;;;;;;;33.53;22.83;;;11.50;99.90;;;;;;7340724;19;112499;-83
2022/03/17 03:47:52;;;;;;;36.03;21.58;;;11.50;99.90;;;;;;7335366;19;112107;-83
2022/03/17 03:50:19;;;;;;;32.33;22.83;;;11.40;99.90;;;;;;7335285;19;112366;-83
2022/03/17 03:52:46;;;;;;;33.05;22.45;;;11.50;99.90;;;;;;7336138;19;114879;-83
2022/03/17 03:55:13;;;;;;;30.55;21.95;;;11.40;99.90;;;;;;7335160;19;111361;-84
2022/03/17 03:57:40;;;;;;;30.17;22.00;;;11.40;99.90;;;;;;7336612;19;111731;-84
2022/03/17 04:02:55;;;;;;;31.25;21.50;;;11.30;99.90;;;;;;7336528;19;111773;-83
2022/03/17 04:05:31;;;;;;;26.17;19.65;;;11.30;99.90;;;;;;7336811;19;115094;-83
2022/03/17 04:07:58;;;;;;;25.88;19.65;;;11.40;99.90;;;;;;7341588;19;110605;-83
2022/03/17 04:10:28;;;;;;;26.25;18.67;;;11.40;99.90;;;;;;7336602;19;112810;-83
2022/03/17 04:12:55;;;;;;;22.30;16.73;;;11.40;99.90;;;;;;7335834;19;109934;-83
2022/03/17 04:15:23;;;;;;;23.70;16.30;;;11.40;99.90;;;;;;7335643;19;110850;-83
2022/03/17 04:17:50;;;;;;;22.15;14.82;;;11.40;99.90;;;;;;7334432;19;111130;-83
2022/03/17 04:20:17;;;;;;;18.30;13.80;;;11.30;99.90;;;;;;7333309;19;110504;-83
2022/03/17 04:22:45;;;;;;;16.63;12.02;;;11.30;99.90;;;;;;7333613;19;113693;-83
2022/03/17 04:25:12;;;;;;;20.45;13.90;;;11.30;99.90;;;;;;7334722;19;111885;-83
2022/03/17 04:27:40;;;;;;;16.70;11.45;;;11.20;99.90;;;;;;7333956;19;110978;-83
2022/03/17 04:30:08;;;;;;;14.70;11.52;;;11.20;99.90;;;;;;7337705;19;111471;-83
2022/03/17 04:32:35;;;;;;;15.15;10.60;;;11.20;99.90;;;;;;7333911;19;110565;-83
2022/03/17 04:35:02;;;;;;;13.65;10.45;;;11.20;99.90;;;;;;7334456;19;111291;-83
2022/03/17 04:37:29;;;;;;;12.15;10.45;;;11.10;99.90;;;;;;7333223;19;112251;-82
2022/03/17 04:39:58;;;;;;;11.88;10.57;;;11.20;99.90;;;;;;7335772;19;110395;-83
2022/03/17 04:42:25;;;;;;;16.85;10.80;;;11.20;99.90;;;;;;7333477;19;111380;-83
2022/03/17 04:44:52;;;;;;;12.55;10.70;;;11.20;99.90;;;;;;7332785;19;111617;-83
2022/03/17 04:47:21;;;;;;;11.98;10.77;;;11.10;99.90;;;;;;7336150;19;111965;-84
2022/03/17 04:49:49;;;;;;;13.93;11.25;;;11.10;99.90;;;;;;7331810;19;111818;-83
2022/03/17 04:55:03;;;;;;;11.65;10.13;;;11.00;99.90;;;;;;7333785;19;112708;-83
2022/03/17 04:57:30;;;;;;;12.52;9.85;;;11.10;99.90;;;;;;7332688;19;111731;-83
2022/03/17 04:59:57;;;;;;;15.73;9.38;;;11.10;99.90;;;;;;7334532;19;112730;-84
2022/03/17 05:02:24;;;;;;;13.70;9.30;;;11.10;99.90;;;;;;7338656;19;108805;-83
2022/03/17 05:04:52;;;;;;;12.88;9.18;;;11.10;99.90;;;;;;7337881;19;109812;-83
2022/03/17 05:07:19;;;;;;;14.23;8.68;;;11.10;99.90;;;;;;7338168;19;110693;-83
2022/03/17 05:09:47;;;;;;;14.90;9.38;;;11.10;99.90;;;;;;7336138;19;108377;-84
2022/03/17 05:12:14;;;;;;;11.50;9.23;;;11.10;99.90;;;;;;7343616;19;109625;-83
2022/03/17 05:14:41;;;;;;;10.60;9.50;;;11.10;99.90;;;;;;7338425;19;109394;-84
2022/03/17 05:17:08;;;;;;;12.45;10.20;;;11.00;99.90;;;;;;7335777;19;109537;-83
2022/03/17 05:19:35;;;;;;;12.68;10.90;;;11.10;99.90;;;;;;7334411;19;110568;-83
2022/03/17 05:22:03;;;;;;;16.50;11.18;;;11.00;99.90;;;;;;7334798;19;112656;-83
2022/03/17 05:24:31;;;;;;;15.98;12.45;;;11.10;99.90;;;;;;7332890;19;112996;-83
2022/03/17 05:26:58;;;;;;;13.77;12.30;;;11.10;99.90;;;;;;7333825;19;110572;-82
2022/03/17 05:29:25;;;;;;;16.75;11.50;;;11.10;99.90;;;;;;7333154;19;113161;-83
2022/03/17 05:31:52;;;;;;;13.70;11.30;;;11.10;99.90;;;;;;7332248;19;111746;-83
2022/03/17 05:34:19;;;;;;;14.15;11.25;;;11.10;99.90;;;;;;7341629;19;111074;-83
2022/03/17 05:36:46;;;;;;;15.45;12.05;;;11.10;99.90;;;;;;7340958;19;112120;-83
2022/03/17 05:39:13;;;;;;;12.77;11.10;;;11.10;99.90;;;;;;7340857;19;110737;-83
2022/03/17 05:41:41;;;;;;;17.88;10.48;;;11.20;99.90;;;;;;7340822;19;112491;-84
2022/03/17 05:44:09;;;;;;;16.02;9.95;;;11.10;99.90;;;;;;7339671;19;111750;-83
2022/03/17 05:46:36;;;;;;;10.57;9.35;;;11.10;99.90;;;;;;7339065;19;110435;-83
2022/03/17 05:49:03;;;;;;;9.23;8.25;;;11.00;99.90;;;;;;7343861;19;108707;-83
2022/03/17 05:51:30;;;;;;;11.90;7.78;;;10.90;99.90;;;;;;7343301;19;109623;-84
2022/03/17 05:53:57;;;;;;;8.85;7.70;;;10.80;99.90;;;;;;7344599;19;113368;-84
2022/03/17 05:56:24;;;;;;;8.98;7.75;;;10.70;99.90;;;;;;7346324;19;109429;-83
2022/03/17 05:58:54;;;;;;;10.73;8.02;;;10.70;99.90;;;;;;7340713;19;110083;-84
2022/03/17 06:01:26;;;;;;;12.18;8.57;;;10.60;99.90;;;;;;7342783;19;109219;-83
2022/03/17 06:03:53;;;;;;;11.75;8.38;;;10.60;99.90;;;;;;7343929;19;110526;-82
2022/03/17 06:06:20;;;;;;;11.90;8.80;;;10.70;99.90;;;;;;7342950;19;110480;-82
2022/03/17 06:08:47;;;;;;;;;;;10.70;99.90;;;;;;7342125;19;109175;-84
2022/03/17 06:11:15;;;;;;;9.88;7.60;;;10.60;99.90;;;;;;7347547;19;109409;-84
2022/03/17 06:13:43;;;;;;;12.05;8.52;;;10.60;99.90;;;;;;7344354;19;112313;-84
2022/03/17 06:16:11;;;;;;;11.57;7.63;;;10.60;99.90;;;;;;7342350;19;108695;-83
2022/03/17 06:18:40;;;;;;;11.52;8.60;;;10.70;99.90;;;;;;7347340;19;109487;-83
2022/03/17 06:21:07;;;;;;;11.20;8.45;;;10.60;99.90;;;;;;7339321;19;108814;-83
2022/03/17 06:23:34;;;;;;;9.20;7.70;;;10.60;99.90;;;;;;7340558;19;109612;-83
2022/03/17 06:26:01;;;;;;;10.98;7.50;;;10.60;99.90;;;;;;7341581;19;110609;-83
2022/03/17 06:28:28;;;;;;;9.90;7.55;;;10.60;99.90;;;;;;7341864;19;109181;-83
2022/03/17 06:30:56;;;;;;;8.10;7.15;;;10.60;99.90;;;;;;7341426;19;109816;-83
2022/03/17 06:33:23;;;;;;;10.95;7.57;;;10.60;99.90;;;;;;7339839;19;110189;-83
2022/03/17 06:35:50;;;;;;;10.05;8.40;;;10.60;99.90;;;;;;7342170;19;108406;-83
2022/03/17 06:38:17;;;;;;;10.05;6.18;;;10.60;99.90;;;;;;7339128;19;109487;-83
2022/03/17 06:40:44;;;;;;;11.10;6.47;;;10.60;99.90;;;;;;7342569;19;110760;-83
2022/03/17 06:43:14;;;;;;;9.73;5.75;;;10.50;99.90;;;;;;7340910;19;109713;-84
2022/03/17 06:45:41;;;;;;;10.30;4.70;;;10.40;99.90;;;;;;7338796;19;110555;-83
2022/03/17 06:48:09;;;;;;;7.40;4.43;;;10.30;99.90;;;;;;7341275;19;110053;-84
2022/03/17 06:50:36;;;;;;;6.75;3.63;;;10.30;99.90;;;;;;7338996;19;109847;-82
2022/03/17 06:53:03;;;;;;;6.47;3.40;;;10.30;99.90;;;;;;7341628;19;110625;-83
2022/03/17 06:55:33;;;;;;;5.40;3.50;;;10.30;99.90;;;;;;7337883;19;109656;-82
2022/03/17 06:58:01;;;;;;;7.05;3.50;;;10.30;99.90;;;;;;7339852;19;109470;-82
2022/03/17 07:00:29;;;;;;;6.13;3.58;;;10.20;99.90;;;;;;7340622;19;111976;-81
2022/03/17 07:02:56;;;;;;;4.95;3.47;;;10.30;99.90;;;;;;7344621;19;109240;-82
2022/03/17 07:05:23;;;;;;;6.13;3.00;;;10.20;99.90;;;;;;7341309;19;110342;-82
2022/03/17 07:07:50;;;;;;;5.80;3.30;;;10.30;99.90;;;;;;7342473;19;108446;-83
2022/03/17 07:10:17;;;;;;;5.85;3.13;;;10.30;99.90;;;;;;7339881;19;109576;-83
2022/03/17 07:12:47;;;;;;;5.97;3.05;;;10.30;99.90;;;;;;7341285;19;114101;-83
2022/03/17 07:15:14;;;;;;;5.20;3.00;;;10.30;99.90;;;;;;7341267;19;109169;-85
2022/03/17 07:17:41;;;;;;;5.93;2.92;;;10.20;99.90;;;;;;7339571;19;112216;-84
2022/03/17 07:20:16;;;;;;;7.30;2.75;;;10.20;99.90;;;;;;7340466;19;109590;-84
2022/03/17 07:22:50;;;;;;;6.05;2.50;;;10.30;99.90;;;;;;7346330;19;108502;-84
2022/03/17 07:25:18;;;;;;;3.03;1.88;;;10.20;99.90;;;;;;7341154;19;110230;-84
2022/03/17 07:27:47;;;;;;;6.57;2.40;;;10.00;99.90;;;;;;7341095;19;109181;-84
2022/03/17 07:30:22;;;;;;;9.07;2.03;;;10.00;99.90;;;;;;7335804;19;109506;-83
2022/03/17 07:33:00;;;;;;;4.22;1.80;;;10.00;99.90;;;;;;7339945;19;110521;-84
2022/03/17 07:35:27;;;;;;;3.83;2.00;;;10.10;99.90;;;;;;7340085;19;108540;-83
2022/03/17 07:37:54;;;;;;;2.92;1.35;;;10.10;99.90;;;;;;7338514;19;109510;-83
2022/03/17 07:40:21;;;;;;;5.25;1.90;;;10.10;99.90;;;;;;7339888;19;110704;-84
2022/03/17 07:42:49;;;;;;;7.50;1.65;;;10.20;99.90;;;;;;7341097;19;108367;-83
2022/03/17 07:45:16;;;;;;;7.40;1.58;;;10.10;99.90;;;;;;7343578;19;110664;-83
2022/03/17 07:47:50;;;;;;;9.23;1.83;;;10.10;99.90;;;;;;7338433;19;108407;-83
2022/03/17 07:50:18;;;;;;;4.28;1.60;;;10.10;99.90;;;;;;7337949;19;109869;-83
2022/03/17 07:52:46;;;;;;;4.10;1.90;;;10.20;99.90;;;;;;7340442;19;110404;-84
2022/03/17 07:55:13;;;;;;;5.78;2.08;;;10.20;99.90;;;;;;7339376;19;108439;-83
2022/03/17 07:57:41;;;;;;;8.55;1.63;;;10.20;99.90;;;;;;7338280;19;109559;-84
2022/03/17 08:00:11;;;;;;;3.85;1.58;;;10.20;99.90;;;;;;7339910;19;108856;-84
2022/03/17 08:02:40;;;;;;;4.93;1.60;;;10.30;99.90;;;;;;7338833;19;108705;-84
2022/03/17 08:05:12;;;;;;;6.75;1.42;;;10.20;99.90;;;;;;7341347;19;108363;-85
2022/03/17 08:07:40;;;;;;;5.18;1.38;;;10.30;99.90;;;;;;7345108;19;110444;-84
2022/03/17 08:10:09;;;;;;;4.78;1.35;;;10.30;99.90;;;;;;7338379;19;109200;-84
2022/03/17 08:12:36;;;;;;;6.22;1.48;;;10.30;99.90;;;;;;7338797;19;111031;-84
2022/03/17 08:15:07;;;;;;;7.60;1.63;;;10.20;99.90;;;;;;7339800;19;108302;-85
2022/03/17 08:17:34;;;;;;;9.15;1.52;;;10.20;99.90;;;;;;7340988;19;109907;-84
2022/03/17 08:20:04;;;;;;;4.57;1.50;;;10.20;99.90;;;;;;7338200;19;110235;-84
2022/03/17 08:22:32;;;;;;;7.60;1.50;;;10.20;99.90;;;;;;7340168;19;110505;-84
2022/03/17 08:24:59;;;;;;;6.82;1.88;;;10.20;99.90;;;;;;7339720;19;109783;-84
2022/03/17 08:27:26;;;;;;;8.30;1.52;;;10.30;99.90;;;;;;7339317;19;113969;-84
2022/03/17 08:29:53;;;;;;;6.00;1.13;;;10.20;99.90;;;;;;7345152;19;108777;-84
2022/03/17 08:32:21;;;;;;;3.10;1.33;;;10.20;99.90;;;;;;7339573;19;110423;-84
2022/03/17 08:34:48;;;;;;;11.07;1.83;;;10.30;99.90;;;;;;7336846;19;108382;-84
2022/03/17 08:37:15;;;;;;;7.13;1.25;;;10.40;99.90;;;;;;7337472;19;110129;-84
2022/03/17 08:39:42;;;;;;;12.75;3.70;;;10.20;99.90;;;;;;7334694;19;110757;-84
2022/03/17 08:42:09;;;;;;;7.72;1.30;;;10.30;99.90;;;;;;7336642;19;111916;-84
2022/03/17 08:44:36;;;;;;;6.47;1.40;;;10.20;99.90;;;;;;7336557;19;109421;-84
2022/03/17 08:49:49;;;;;;;6.47;2.00;;;10.40;99.90;;;;;;7337261;19;108566;-84
2022/03/17 08:52:16;;;;;;;6.80;1.15;;;10.40;99.90;;;;;;7344669;19;109660;-85
2022/03/17 08:54:47;;;;;;;9.15;1.42;;;10.40;99.90;;;;;;7338256;19;109851;-84
2022/03/17 08:57:15;;;;;;;5.88;1.42;;;10.40;99.90;;;;;;7338079;19;109419;-84
2022/03/17 08:59:42;;;;;;;8.02;1.52;;;10.40;99.90;;;;;;7336938;19;110621;-84
2022/03/17 09:02:12;;;;;;;7.38;1.10;;;10.40;99.90;;;;;;7338983;19;108453;-86
2022/03/17 09:04:40;;;;;;;5.50;1.30;;;10.30;99.90;;;;;;7339324;19;109409;-85
2022/03/17 09:07:07;;;;;;;11.88;2.20;;;10.30;99.90;;;;;;7337978;19;110178;-84
2022/03/17 09:09:38;;;;;;;8.25;1.45;;;10.40;99.90;;;;;;7341543;19;110756;-83
2022/03/17 09:12:07;;;;;;;7.30;1.77;;;10.40;99.90;;;;;;7345027;19;109868;-84
2022/03/17 09:14:40;;;;;;;6.13;1.30;;;10.40;99.90;;;;;;7349137;19;110738;-84
2022/03/17 09:17:07;;;;;;;5.40;1.20;;;10.50;99.90;;;;;;7344457;19;109413;-85
2022/03/17 09:19:34;;;;;;;5.68;1.50;;;10.40;99.90;;;;;;7344115;19;110565;-84
2022/03/17 09:22:02;;;;;;;6.65;1.35;;;10.40;99.90;;;;;;7345176;19;111142;-85
2022/03/17 09:24:30;;;;;;;4.38;1.30;;;10.40;99.90;;;;;;7345339;19;110211;-85
2022/03/17 09:26:59;;;;;;;5.18;1.33;;;10.30;99.90;;;;;;7344746;19;110914;-86
2022/03/17 09:29:30;;;;;;;3.17;1.10;;;10.40;99.90;;;;;;7344606;19;108382;-86
2022/03/17 09:31:58;;;;;;;7.18;1.50;;;10.50;99.90;;;;;;7342408;19;109639;-84
2022/03/17 09:34:26;;;;;;;5.20;1.73;;;10.50;99.90;;;;;;7351041;19;110542;-84
2022/03/17 09:36:53;;;;;;;6.90;1.48;;;10.60;99.90;;;;;;7344625;19;109357;-85
2022/03/17 09:42:06;;;;;;;4.88;1.30;;;10.80;99.90;;;;;;7343656;19;108910;-84
2022/03/17 09:44:34;;;;;;;9.10;1.45;;;10.90;99.90;;;;;;7342752;19;112878;-83
2022/03/17 09:47:03;;;;;;;9.75;1.65;;;11.00;99.50;;;;;;7343466;19;109441;-84
2022/03/17 09:49:30;;;;;;;3.03;1.40;;;11.10;99.30;;;;;;7343955;19;110318;-84
2022/03/17 09:51:58;;;;;;;6.43;1.48;;;11.10;99.20;;;;;;7341815;19;109831;-83
2022/03/17 09:54:25;;;;;;;8.95;1.10;;;11.10;98.90;;;;;;7344978;19;110156;-85
2022/03/17 09:56:52;;;;;;;4.45;1.10;;;11.10;98.90;;;;;;7348070;19;108903;-84
2022/03/17 09:59:19;;;;;;;8.05;1.30;;;11.10;99.10;;;;;;7343655;19;110519;-84
2022/03/17 10:01:47;;;;;;;4.90;1.17;;;11.20;99.10;;;;;;7344604;19;111006;-84
2022/03/17 10:04:15;;;;;;;7.88;1.55;;;11.20;98.80;;;;;;7340203;19;111664;-84
2022/03/17 10:06:43;;;;;;;3.50;1.33;;;11.20;98.70;;;;;;7338657;19;110735;-84
2022/03/17 10:09:10;;;;;;;4.25;1.10;;;11.30;99.00;;;;;;7343053;19;108502;-83
2022/03/17 10:11:38;;;;;;;5.72;1.42;;;11.40;99.00;;;;;;7341510;19;109121;-84
2022/03/17 10:14:06;;;;;;;3.28;1.10;;;11.50;98.70;;;;;;7342898;19;110255;-84
2022/03/17 10:16:37;;;;;;;5.18;1.23;;;11.40;98.20;;;;;;7344610;19;108885;-84
2022/03/17 10:19:08;;;;;;;5.80;1.10;;;11.40;97.90;;;;;;7349309;19;108459;-84
2022/03/17 10:21:37;;;;;;;7.97;1.30;;;11.40;98.40;;;;;;7340770;19;110542;-84
2022/03/17 10:24:06;;;;;;;7.32;1.33;;;11.40;98.10;;;;;;7343965;19;109229;-84
2022/03/17 10:26:47;;;;;;;5.30;1.40;;;11.50;98.20;;;;;;7345418;19;110346;-85
2022/03/17 10:29:20;;;;;;;6.85;1.40;;;11.60;98.10;;;;;;7343943;19;109384;-84
2022/03/17 10:31:50;;;;;;;7.18;1.55;;;11.80;97.90;;;;;;7341607;19;109546;-85
2022/03/17 10:34:21;;;;;;;7.85;1.20;;;11.80;97.50;;;;;;7342597;19;110393;-84
2022/03/17 10:36:49;;;;;;;8.05;1.58;;;11.90;97.40;;;;;;7341378;19;108343;-84
2022/03/17 10:39:17;;;;;;;6.22;1.58;;;11.90;97.00;;;;;;7342021;19;109490;-84
2022/03/17 10:41:46;;;;;;;5.70;1.65;;;11.90;97.00;;;;;;7346730;19;109488;-84
2022/03/17 10:44:18;;;;;;;5.32;1.75;;;11.90;97.20;;;;;;7342351;19;112358;-84
2022/03/17 10:46:55;;;;;;;4.22;1.30;;;12.00;97.20;;;;;;7339969;19;110426;-84
2022/03/17 10:49:22;;;;;;;9.70;2.55;;;12.10;96.80;;;;;;7343568;19;111129;-84
2022/03/17 10:51:54;;;;;;;8.30;2.25;;;12.10;96.00;;;;;;7341791;19;109471;-85
2022/03/17 10:54:22;;;;;;;7.25;3.03;;;12.00;96.50;;;;;;7341810;19;110108;-84
2022/03/17 10:57:09;;;;;;;6.05;1.75;;;12.00;96.80;;;;;;7340883;19;108532;-84
2022/03/17 10:59:44;;;;;;;6.97;1.40;;;12.10;96.40;;;;;;7341847;19;112864;-84
2022/03/17 11:02:13;;;;;;;6.95;1.80;;;12.10;96.40;;;;;;7342396;19;109535;-85
2022/03/17 11:04:44;;;;;;;8.55;1.40;;;12.10;96.50;;;;;;7345903;19;110974;-84
2022/03/17 11:07:17;;;;;;;8.80;1.10;;;12.20;96.50;;;;;;7342040;19;109123;-85
2022/03/17 11:09:47;;;;;;;5.78;1.23;;;12.20;95.80;;;;;;7341908;19;108601;-84
2022/03/17 11:12:17;;;;;;;5.13;1.58;;;12.20;96.00;;;;;;7339884;19;109397;-84
2022/03/17 11:14:47;;;;;;;10.55;2.10;;;12.10;95.90;;;;;;7341297;19;110599;-84
2022/03/17 11:17:20;;;;;;;6.90;1.23;;;12.10;96.30;;;;;;7342146;19;108327;-84
2022/03/17 11:19:48;;;;;;;8.57;1.50;;;12.20;95.90;;;;;;7341688;19;109688;-85
2022/03/17 11:22:22;;;;;;;4.45;1.20;;;12.20;95.70;;;;;;7341640;19;110656;-84
2022/03/17 11:25:15;;;;;;;5.55;0.75;;;12.20;95.70;;;;;;7339685;19;108323;-84
2022/03/17 11:27:49;;;;;;;5.57;1.15;;;12.30;95.60;;;;;;7344354;19;109529;-85
2022/03/17 11:30:17;;;;;;;5.35;1.13;;;12.30;95.50;;;;;;7340502;19;110357;-84
2022/03/17 11:32:54;;;;;;;7.68;1.00;;;12.30;95.40;;;;;;7338747;19;110129;-85
2022/03/17 11:35:32;;;;;;;9.00;1.60;;;12.40;95.40;;;;;;7341805;19;109808;-84
2022/03/17 11:38:15;;;;;;;6.78;2.00;;;12.40;95.20;;;;;;7341934;19;108407;-84
2022/03/17 11:41:05;;;;;;;4.35;1.23;;;12.50;94.70;;;;;;7342432;19;109821;-84
2022/03/17 11:43:48;;;;;;;4.15;1.10;;;12.60;94.70;;;;;;7340219;19;113501;-84
2022/03/17 11:46:16;;;;;;;7.43;1.52;;;12.50;94.50;;;;;;7339015;19;109193;-84
2022/03/17 11:48:45;;;;;;;8.48;2.67;;;12.50;94.80;;;;;;7344499;19;108443;-84
2022/03/17 11:51:15;;;;;;;4.28;1.80;;;12.60;95.00;;;;;;7338357;19;109187;-84
2022/03/17 11:53:49;;;;;;;4.75;1.60;;;12.70;94.70;;;;;;7340143;19;109263;-84
2022/03/17 11:56:31;;;;;;;7.85;1.45;;;12.80;94.50;;;;;;7336909;19;110599;-84
2022/03/17 11:58:58;;;;;;;9.80;1.42;;;12.80;94.40;;;;;;7341440;19;109249;-84
2022/03/17 12:01:29;;;;;;;3.60;1.30;;;12.80;94.10;;;;;;7340441;19;109315;-84
2022/03/17 12:04:01;;;;;;;5.93;1.23;;;12.80;94.40;;;;;;7340494;19;110518;-85
2022/03/17 12:06:30;;;;;;;5.93;1.75;;;12.80;94.60;;;;;;7342026;19;111089;-84
2022/03/17 12:09:03;;;;;;;4.32;1.60;;;12.90;94.60;;;;;;7336976;19;109211;-84
2022/03/17 12:11:46;;;;;;;8.55;1.48;;;13.00;94.30;;;;;;7344314;19;111898;-84
2022/03/17 12:14:14;;;;;;;6.75;1.60;;;13.00;94.10;;;;;;7338318;19;109430;-85
2022/03/17 12:16:42;;;;;;;6.65;1.40;;;12.90;93.90;;;;;;7338262;19;109561;-84
2022/03/17 12:19:22;;;;;;;5.57;1.33;;;13.00;93.80;;;;;;7340932;19;108557;-83
2022/03/17 12:22:00;;;;;;;5.60;1.27;;;13.00;93.70;;;;;;7339967;19;108689;-84
2022/03/17 12:24:53;;;;;;;7.75;1.60;;;13.00;93.90;;;;;;7339091;19;114052;-86
2022/03/17 12:27:26;;;;;;;6.28;1.55;;;13.20;93.80;;;;;;7336784;19;108540;-85
2022/03/17 12:29:57;;;;;;;8.75;1.95;;;13.20;94.00;;;;;;7331448;19;109814;-86
2022/03/17 12:32:28;;;;;;;8.18;1.73;;;13.30;94.00;;;;;;7338290;19;110199;-85
2022/03/17 12:34:56;;;;;;;12.50;1.67;;;13.40;93.70;;;;;;7345606;19;110458;-85
2022/03/17 12:37:28;;;;;;;6.53;1.92;;;13.40;93.60;;;;;;7339665;19;113412;-86
2022/03/17 12:39:59;;;;;;;7.20;2.05;;;13.50;93.40;;;;;;7339217;19;108758;-85
2022/03/17 12:42:29;;;;;;;5.85;1.55;;;13.50;93.50;;;;;;7338427;19;109740;-85
2022/03/17 12:45:03;;;;;;;6.57;1.63;;;13.50;93.80;;;;;;7337498;19;110563;-85
2022/03/17 12:47:33;;;;;;;5.20;1.50;;;13.60;93.60;;;;;;7337248;19;108696;-86
2022/03/17 12:50:03;;;;;;;6.70;1.70;;;13.70;93.60;;;;;;7336986;19;108565;-85
2022/03/17 12:52:32;;;;;;;3.55;1.23;;;13.60;93.30;;;;;;7336976;19;111183;-85
2022/03/17 12:55:01;;;;;;;6.78;1.45;;;13.60;92.80;;;;;;7337043;19;109528;-85